createdAt,value
2019-05-20T00:04:19.141Z,18.73
2019-05-20T00:09:21.872Z,18.48
2019-05-20T00:14:24.647Z,18.49
2019-05-20T00:19:27.399Z,18.41
2019-05-20T00:24:30.117Z,18.36
2019-05-20T00:29:32.883Z,18.26
2019-05-20T00:34:35.847Z,18.18
2019-05-20T00:39:38.660Z,18.08
2019-05-20T00:44:41.421Z,17.98
2019-05-20T00:49:44.140Z,17.88
2019-05-20T00:54:47.829Z,17.91
2019-05-20T00:59:50.778Z,17.70
2019-05-20T01:04:53.506Z,17.85
2019-05-20T01:09:56.235Z,17.80
2019-05-20T01:14:59.078Z,17.73
2019-05-20T01:20:01.840Z,17.58
2019-05-20T01:25:04.830Z,17.52
2019-05-20T01:30:08.453Z,17.64
2019-05-20T01:35:13.182Z,17.71
2019-05-20T01:40:16.101Z,17.74
2019-05-20T01:45:18.878Z,17.69
2019-05-20T01:50:21.715Z,17.65
2019-05-20T01:55:24.409Z,17.48
2019-05-20T02:00:27.154Z,17.49
2019-05-20T02:05:29.847Z,17.38
2019-05-20T02:10:32.573Z,17.45
2019-05-20T02:15:47.019Z,17.47
2019-05-20T02:20:49.790Z,17.43
2019-05-20T02:25:52.514Z,17.22
2019-05-20T02:30:57.024Z,17.14
2019-05-20T02:35:59.802Z,17.18
2019-05-20T02:41:02.622Z,17.20
2019-05-20T02:46:05.664Z,17.20
2019-05-20T02:51:08.361Z,17.23
2019-05-20T02:56:11.069Z,17.26
2019-05-20T03:01:13.790Z,17.22
2019-05-20T03:06:16.518Z,17.19
2019-05-20T03:11:19.233Z,17.05
2019-05-20T03:16:21.941Z,17.01
2019-05-20T03:21:24.683Z,16.98
2019-05-20T03:26:27.372Z,16.87
2019-05-20T03:31:30.089Z,16.80
2019-05-20T03:36:32.811Z,16.83
2019-05-20T03:41:35.630Z,16.85
2019-05-20T03:46:38.347Z,16.85
2019-05-20T03:51:41.120Z,16.83
2019-05-20T03:56:43.924Z,16.80
2019-05-20T04:01:46.620Z,16.72
2019-05-20T04:06:49.329Z,16.72
2019-05-20T04:11:52.058Z,16.84
2019-05-20T04:16:57.668Z,16.94
2019-05-20T04:22:00.399Z,17.02
2019-05-20T04:27:03.169Z,17.12
2019-05-20T04:32:05.898Z,17.25
2019-05-20T04:37:08.725Z,17.29
2019-05-20T04:42:11.489Z,17.36
2019-05-20T04:47:14.193Z,17.45
2019-05-20T04:52:17.206Z,17.53
2019-05-20T04:57:20.371Z,17.53
2019-05-20T05:02:23.788Z,17.50
2019-05-20T05:07:27.311Z,17.52
2019-05-20T05:12:31.124Z,17.62
2019-05-20T05:17:35.216Z,17.62
2019-05-20T05:22:38.454Z,17.72
2019-05-20T05:27:41.223Z,17.86
2019-05-20T05:32:44.881Z,18.04
2019-05-20T05:37:48.254Z,18.16
2019-05-20T05:42:51.260Z,18.20
2019-05-20T05:47:53.970Z,18.37
2019-05-20T05:52:56.669Z,18.55
2019-05-20T05:57:59.394Z,18.63
2019-05-20T06:03:02.415Z,18.85
2019-05-20T06:08:05.175Z,19.07
2019-05-20T06:13:07.926Z,19.17
2019-05-20T06:18:11.388Z,19.26
2019-05-20T06:23:14.088Z,19.42
2019-05-20T06:28:16.801Z,19.53
2019-05-20T06:33:19.500Z,19.42
2019-05-20T06:38:56.893Z,19.54
2019-05-20T06:43:59.645Z,19.40
2019-05-20T06:49:02.395Z,19.50
2019-05-20T06:54:05.068Z,19.48
2019-05-20T06:59:07.750Z,19.69
2019-05-20T07:04:10.438Z,20.09
2019-05-20T07:09:13.133Z,20.20
2019-05-20T07:14:15.867Z,20.07
2019-05-20T07:19:18.619Z,20.17
2019-05-20T07:24:21.319Z,19.75
2019-05-20T07:29:24.019Z,20.03
2019-05-20T07:34:26.824Z,20.13
2019-05-20T07:39:29.602Z,20.39
2019-05-20T07:44:33.380Z,20.64
2019-05-20T07:49:37.208Z,20.71
2019-05-20T07:54:40.659Z,20.94
2019-05-20T07:59:47.701Z,21.65
2019-05-20T08:04:50.546Z,22.74
2019-05-20T08:09:53.298Z,23.19
2019-05-20T08:14:55.999Z,23.35
2019-05-20T08:19:58.729Z,23.75
2019-05-20T08:25:01.501Z,23.82
2019-05-20T08:30:05.279Z,24.14
2019-05-20T08:35:08.389Z,23.93
2019-05-20T08:40:11.306Z,24.21
2019-05-20T08:45:14.141Z,24.56
2019-05-20T08:50:16.940Z,24.14
2019-05-20T08:55:19.649Z,24.29
2019-05-20T09:00:24.215Z,24.89
2019-05-20T09:05:28.339Z,25.05
2019-05-20T09:10:31.459Z,24.90
2019-05-20T09:15:34.215Z,24.55
2019-05-20T09:20:36.995Z,24.69
2019-05-20T09:25:39.695Z,24.80
2019-05-20T09:30:43.050Z,25.08
2019-05-20T09:35:45.780Z,25.80
2019-05-20T09:40:49.071Z,25.99
2019-05-20T09:46:05.595Z,26.35
2019-05-20T09:50:56.468Z,26.73
2019-05-20T09:56:10.514Z,27.22
2019-05-20T10:01:16.840Z,27.34
2019-05-20T10:06:19.594Z,27.12
2019-05-20T10:11:22.342Z,27.09
2019-05-20T10:16:25.038Z,26.81
2019-05-20T10:21:27.749Z,26.95
2019-05-20T10:26:30.446Z,26.97
2019-05-20T10:31:33.415Z,26.77
2019-05-20T10:36:36.193Z,26.64
2019-05-20T10:41:38.906Z,27.03
2019-05-20T10:46:41.627Z,27.30
2019-05-20T10:51:44.471Z,27.02
2019-05-20T10:56:47.255Z,27.48
2019-05-20T11:01:49.951Z,27.84
2019-05-20T11:06:52.751Z,27.61
2019-05-20T11:11:55.460Z,28.16
2019-05-20T11:16:58.176Z,28.21
2019-05-20T11:22:00.900Z,27.98
2019-05-20T11:27:03.682Z,28.17
2019-05-20T11:32:06.400Z,28.74
2019-05-20T11:37:09.107Z,28.81
2019-05-20T11:42:12.041Z,28.35
2019-05-20T11:47:15.550Z,28.24
2019-05-20T11:52:18.570Z,28.57
2019-05-20T11:57:21.950Z,28.48
2019-05-20T12:02:24.906Z,28.60
2019-05-20T12:07:28.021Z,28.67
2019-05-20T12:12:30.984Z,28.71
2019-05-20T12:17:33.817Z,28.14
2019-05-20T12:22:36.526Z,28.58
2019-05-20T12:27:39.511Z,28.28
2019-05-20T12:32:42.195Z,28.78
2019-05-20T12:37:45.824Z,28.43
2019-05-20T12:42:48.705Z,28.10
2019-05-20T12:47:51.401Z,28.44
2019-05-20T12:52:54.114Z,28.20
2019-05-20T12:57:56.819Z,28.16
2019-05-20T13:02:59.514Z,27.76
2019-05-20T13:08:02.224Z,27.88
2019-05-20T13:13:04.900Z,27.82
2019-05-20T13:18:07.645Z,27.90
2019-05-20T13:23:12.858Z,28.28
2019-05-20T13:28:14.998Z,28.13
2019-05-20T13:33:17.689Z,27.90
2019-05-20T13:38:20.384Z,27.72
2019-05-20T13:43:23.070Z,28.10
2019-05-20T13:48:25.780Z,28.38
2019-05-20T13:53:28.471Z,28.24
2019-05-20T13:58:31.159Z,28.21
2019-05-20T14:03:33.847Z,28.61
2019-05-20T14:08:36.562Z,28.94
2019-05-20T14:13:39.245Z,28.81
2019-05-20T14:18:41.936Z,28.99
2019-05-20T14:23:46.503Z,28.66
2019-05-20T14:28:49.201Z,28.86
2019-05-20T14:33:51.902Z,28.56
2019-05-20T14:38:54.597Z,28.95
2019-05-20T14:43:57.317Z,29.22
2019-05-20T14:49:02.456Z,29.61
2019-05-20T14:54:04.600Z,29.61
2019-05-20T14:59:12.344Z,29.40
2019-05-20T15:04:15.100Z,28.95
2019-05-20T15:09:17.870Z,28.42
2019-05-20T15:14:20.621Z,27.63
2019-05-20T15:19:23.309Z,27.42
2019-05-20T15:24:25.995Z,27.19
2019-05-20T15:29:28.754Z,27.06
2019-05-20T15:34:31.490Z,26.72
2019-05-20T15:39:34.295Z,26.47
2019-05-20T15:44:37.036Z,26.33
2019-05-20T15:49:39.712Z,26.34
2019-05-20T15:54:42.427Z,26.15
2019-05-20T15:59:46.575Z,26.06
2019-05-20T16:04:49.585Z,26.11
2019-05-20T16:09:52.378Z,26.10
2019-05-20T16:14:55.088Z,26.24
2019-05-20T16:19:57.836Z,26.27
2019-05-20T16:25:00.755Z,25.77
2019-05-20T16:30:07.205Z,26.51
2019-05-20T16:35:09.337Z,26.70
2019-05-20T16:40:12.835Z,26.56
2019-05-20T16:45:15.696Z,26.70
2019-05-20T16:50:18.540Z,26.68
2019-05-20T16:55:21.262Z,26.62
2019-05-20T17:00:31.249Z,26.58
2019-05-20T17:05:28.569Z,26.46
2019-05-20T17:10:31.298Z,26.36
2019-05-20T17:15:34.017Z,26.11
2019-05-20T17:20:36.743Z,25.99
2019-05-20T17:25:39.656Z,25.85
2019-05-20T17:30:45.501Z,25.61
2019-05-20T17:35:46.967Z,25.42
2019-05-20T17:40:49.705Z,25.07
2019-05-20T17:45:52.445Z,25.05
2019-05-20T17:50:55.195Z,24.91
2019-05-20T17:55:57.918Z,24.76
2019-05-20T18:01:13.680Z,24.64
2019-05-20T18:06:05.364Z,24.56
2019-05-20T18:11:08.110Z,24.44
2019-05-20T18:16:10.823Z,24.39
2019-05-20T18:21:13.561Z,24.24
2019-05-20T18:26:16.258Z,24.11
2019-05-20T18:31:31.863Z,23.96
2019-05-20T18:36:23.560Z,23.90
2019-05-20T18:41:28.043Z,23.70
2019-05-20T18:46:30.754Z,23.55
2019-05-20T18:51:33.477Z,23.39
2019-05-20T18:56:36.197Z,23.35
2019-05-20T19:01:47.609Z,23.38
2019-05-20T19:06:43.575Z,23.29
2019-05-20T19:11:46.294Z,23.30
2019-05-20T19:16:49.042Z,23.02
2019-05-20T19:21:51.772Z,22.91
2019-05-20T19:26:54.681Z,22.78
2019-05-20T19:32:01.858Z,22.60
2019-05-20T19:37:02.141Z,21.96
2019-05-20T19:42:04.859Z,20.72
2019-05-20T19:47:07.620Z,20.27
2019-05-20T19:52:10.415Z,20.12
2019-05-20T19:57:13.140Z,20.20
2019-05-20T20:02:17.727Z,20.14
2019-05-20T20:07:20.451Z,20.26
2019-05-20T20:12:23.157Z,20.30
2019-05-20T20:17:25.922Z,20.35
2019-05-20T20:22:28.639Z,20.24
2019-05-20T20:27:31.670Z,20.23
2019-05-20T20:32:37.934Z,20.29
2019-05-20T20:37:39.096Z,19.99
2019-05-20T20:42:42.173Z,19.94
2019-05-20T20:47:44.898Z,19.96
2019-05-20T20:52:47.592Z,20.02
2019-05-20T20:57:50.281Z,19.94
2019-05-20T21:02:54.017Z,19.83
2019-05-20T21:07:56.798Z,19.36
2019-05-20T21:12:59.486Z,19.12
2019-05-20T21:18:02.180Z,19.09
2019-05-20T21:23:04.889Z,19.02
2019-05-20T21:28:07.618Z,18.93
2019-05-20T21:33:10.328Z,18.95
2019-05-20T21:38:13.060Z,18.82
2019-05-20T21:43:15.800Z,18.65
2019-05-20T21:48:18.541Z,18.48
2019-05-20T21:53:21.248Z,18.54
2019-05-20T21:58:23.944Z,18.32
2019-05-20T22:03:26.659Z,18.45
2019-05-20T22:08:29.373Z,18.47
2019-05-20T22:13:32.098Z,18.47
2019-05-20T22:18:34.839Z,18.46
2019-05-20T22:23:59.808Z,18.35
2019-05-20T22:29:02.510Z,18.25
2019-05-20T22:34:05.240Z,18.18
2019-05-20T22:39:08.284Z,18.15
2019-05-20T22:44:11.000Z,18.10
2019-05-20T22:49:13.695Z,18.19
2019-05-20T22:54:16.512Z,18.10
2019-05-20T22:59:19.241Z,18.07
2019-05-20T23:04:21.939Z,18.01
2019-05-20T23:09:24.630Z,17.94
2019-05-20T23:14:27.330Z,17.90
2019-05-20T23:19:30.041Z,17.76
2019-05-20T23:24:32.759Z,17.90
2019-05-20T23:29:35.467Z,17.91
2019-05-20T23:34:38.195Z,18.01
2019-05-20T23:39:41.025Z,18.00
2019-05-20T23:44:43.773Z,18.09
2019-05-20T23:49:46.493Z,18.07
2019-05-20T23:54:49.199Z,17.97
2019-05-20T23:59:51.914Z,17.97
